Thatcher, Arizona
Current Conditions -  °F | °C
As of 4:51 PM on Saturday 25 Oct 2014 (Local Time) from KSAD Reporting Station
Clear Clear  
Wind Chill: 86°   Ceiling: Unl
Heat Index: 86°   Visibility: 10mi
Dew Point: 43°   Wind: 3mph
Humidity: 22%   Direction: 200°SSW
Pressure: 30.04"   Gusts: NA
Location:  32.85°N, 109.76°W
Report Text: KSAD 252351Z AUTO 20003KT 10SM CLR 30/06 A3004 RMK AO2 SLP128 T03000061 10311 20250 56017
Loading
Personal Weather Stations






























Interactive Weather Map
Tropical Storm Tracking
New forecast layout! Learn more

10-Day Weather Forecast

Advertisements
Track Severe Weather on mobile